Terminal Aerodrome Forecast
Issued by NWS

Home | Current Version | Previous Version | Text Only | Print | Product List | Glossary On
Versions: 1 2 3 4 5 6 7 8 9 10 11 12 13 14 15 16 17 18 19 20 21 22 23 24 25 26
000
FTUS41 KRLX 221740
TAFCKB
TAF
KCKB 221740Z 2218/2318 09003KT P6SM OVC070
     FM222100 06007KT P6SM -SHRA OVC050
     FM230400 03005KT 6SM -SHRA OVC025
     FM230900 07007G15KT 3SM -SHRA BR OVC012
     FM231400 05009G18KT 2SM SHRA BR BKN007 OVC010=

USA.gov is the U.S. government's official web portal to all federal, state and local government web resources and services.